createdAt,value
2023-07-25T00:01:17.156Z,97881.00
2023-07-25T00:03:49.234Z,97880.79
2023-07-25T00:06:18.928Z,97883.16
2023-07-25T00:08:48.862Z,97878.83
2023-07-25T00:11:17.425Z,97877.05
2023-07-25T00:13:45.815Z,97880.73
2023-07-25T00:16:14.124Z,97874.31
2023-07-25T00:18:42.485Z,97861.70
2023-07-25T00:21:10.873Z,97853.59
2023-07-25T00:23:39.159Z,97858.32
2023-07-25T00:26:07.459Z,97864.37
2023-07-25T00:28:35.684Z,97874.95
2023-07-25T00:31:08.762Z,97888.80
2023-07-25T00:33:37.165Z,97888.21
2023-07-25T00:36:05.627Z,97880.46
2023-07-25T00:38:33.852Z,97873.93
2023-07-25T00:41:02.113Z,97876.40
2023-07-25T00:43:30.480Z,97882.70
2023-07-25T00:45:58.743Z,97873.86
2023-07-25T00:48:27.090Z,97869.48
2023-07-25T00:50:55.953Z,97866.22
2023-07-25T00:53:26.826Z,97873.58
2023-07-25T00:55:55.257Z,97878.66
2023-07-25T00:58:23.549Z,97875.59
2023-07-25T01:00:51.728Z,97876.91
2023-07-25T01:03:20.152Z,97871.77
2023-07-25T01:05:51.479Z,97874.71
2023-07-25T01:08:19.698Z,97877.40
2023-07-25T01:10:48.030Z,97879.65
2023-07-25T01:13:16.328Z,97878.75
2023-07-25T01:15:45.791Z,97878.28
2023-07-25T01:18:15.464Z,97869.99
2023-07-25T01:20:44.687Z,97869.90
2023-07-25T01:23:14.980Z,97867.16
2023-07-25T01:25:47.461Z,97866.29
2023-07-25T01:28:15.684Z,97868.03
2023-07-25T01:30:43.977Z,97874.84
2023-07-25T01:33:12.175Z,97872.39
2023-07-25T01:35:40.470Z,97879.56
2023-07-25T01:38:08.800Z,97881.44
2023-07-25T01:40:40.840Z,97884.09
2023-07-25T01:43:10.380Z,97888.06
2023-07-25T01:45:38.659Z,97889.73
2023-07-25T01:48:06.905Z,97896.09
2023-07-25T01:50:35.190Z,97898.95
2023-07-25T01:53:03.422Z,97897.19
2023-07-25T01:55:31.685Z,97888.94
2023-07-25T01:57:59.933Z,97889.81
2023-07-25T02:00:28.275Z,97891.58
2023-07-25T02:02:56.554Z,97890.81
2023-07-25T02:05:24.937Z,97899.93
2023-07-25T02:07:53.305Z,97897.36
2023-07-25T02:10:21.580Z,97898.73
2023-07-25T02:12:49.956Z,97899.98
2023-07-25T02:15:18.630Z,97903.44
2023-07-25T02:17:46.911Z,97902.38
2023-07-25T02:20:15.469Z,97903.20
2023-07-25T02:22:43.658Z,97908.71
2023-07-25T02:25:11.994Z,97919.73
2023-07-25T02:27:40.600Z,97923.27
2023-07-25T02:30:09.034Z,97925.17
2023-07-25T02:32:37.335Z,97931.41
2023-07-25T02:35:06.126Z,97934.64
2023-07-25T02:37:34.357Z,97931.24
2023-07-25T02:40:03.652Z,97936.35
2023-07-25T02:42:31.844Z,97937.02
2023-07-25T02:45:00.356Z,97934.79
2023-07-25T02:47:28.563Z,97932.44
2023-07-25T02:49:57.639Z,97926.27
2023-07-25T02:52:25.809Z,97930.89
2023-07-25T02:54:54.044Z,97933.62
2023-07-25T02:57:22.450Z,97927.36
2023-07-25T02:59:50.895Z,97923.02
2023-07-25T03:02:19.160Z,97925.46
2023-07-25T03:04:47.460Z,97926.16
2023-07-25T03:07:15.710Z,97930.32
2023-07-25T03:09:44.710Z,97936.92
2023-07-25T03:12:13.002Z,97941.36
2023-07-25T03:14:41.163Z,97947.48
2023-07-25T03:17:09.514Z,97951.64
2023-07-25T03:19:37.709Z,97948.66
2023-07-25T03:22:06.188Z,97940.98
2023-07-25T03:24:34.474Z,97938.79
2023-07-25T03:27:02.772Z,97943.29
2023-07-25T03:29:30.947Z,97943.98
2023-07-25T03:31:59.141Z,97943.04
2023-07-25T03:34:27.444Z,97938.54
2023-07-25T03:36:56.056Z,97937.16
2023-07-25T03:39:24.275Z,97928.36
2023-07-25T03:41:52.652Z,97927.20
2023-07-25T03:44:21.412Z,97927.79
2023-07-25T03:46:49.583Z,97930.55
2023-07-25T03:49:17.918Z,97930.05
2023-07-25T03:51:46.249Z,97926.68
2023-07-25T03:54:40.472Z,97926.77
2023-07-25T03:57:08.797Z,97924.48
2023-07-25T03:59:37.051Z,97917.01
2023-07-25T04:02:05.736Z,97915.27
2023-07-25T04:04:34.094Z,97922.00
2023-07-25T04:07:02.381Z,97920.02
2023-07-25T04:09:30.700Z,97923.81
2023-07-25T04:11:59.063Z,97927.44
2023-07-25T04:14:47.214Z,97929.59
2023-07-25T04:17:15.648Z,97932.12
2023-07-25T04:19:43.858Z,97928.14
2023-07-25T04:22:12.837Z,97931.17
2023-07-25T04:24:41.394Z,97931.15
2023-07-25T04:27:09.647Z,97932.63
2023-07-25T04:29:37.859Z,97931.23
2023-07-25T04:32:06.679Z,97940.19
2023-07-25T04:34:35.086Z,97943.55
2023-07-25T04:37:03.451Z,97943.08
2023-07-25T04:39:31.663Z,97944.98
2023-07-25T04:41:59.859Z,97942.05
2023-07-25T04:44:28.271Z,97937.67
2023-07-25T04:46:56.625Z,97928.52
2023-07-25T04:49:26.518Z,97926.05
2023-07-25T04:51:54.773Z,97928.20
2023-07-25T04:54:23.075Z,97923.77
2023-07-25T04:56:51.317Z,97929.48
2023-07-25T04:59:20.430Z,97935.61
2023-07-25T05:01:49.006Z,97937.88
2023-07-25T05:04:17.170Z,97939.98
2023-07-25T05:06:45.408Z,97941.56
2023-07-25T05:09:13.932Z,97936.89
2023-07-25T05:11:42.068Z,97932.71
2023-07-25T05:14:11.106Z,97929.42
2023-07-25T05:16:39.270Z,97926.41
2023-07-25T05:19:07.539Z,97936.23
2023-07-25T05:21:35.945Z,97941.38
2023-07-25T05:24:04.305Z,97940.81
2023-07-25T05:26:32.635Z,97941.23
2023-07-25T05:29:00.923Z,97940.37
2023-07-25T05:31:29.481Z,97941.04
2023-07-25T05:33:58.151Z,97940.06
2023-07-25T05:36:29.071Z,97937.49
2023-07-25T05:38:57.384Z,97933.13
2023-07-25T05:41:25.690Z,97929.05
2023-07-25T05:43:53.959Z,97934.34
2023-07-25T05:46:22.304Z,97933.94
2023-07-25T05:48:50.689Z,97933.93
2023-07-25T05:51:19.062Z,97932.90
2023-07-25T05:53:49.144Z,97929.86
2023-07-25T05:56:17.659Z,97925.98
2023-07-25T05:58:46.397Z,97926.97
2023-07-25T06:01:14.934Z,97929.02
2023-07-25T06:03:46.148Z,97932.58
2023-07-25T06:06:14.715Z,97927.06
2023-07-25T06:08:45.584Z,97922.04
2023-07-25T06:11:13.675Z,97923.59
2023-07-25T06:13:42.099Z,97919.88
2023-07-25T06:16:10.667Z,97923.25
2023-07-25T06:18:38.928Z,97917.73
2023-07-25T06:21:07.464Z,97919.61
2023-07-25T06:23:35.930Z,97921.18
2023-07-25T06:26:04.197Z,97923.85
2023-07-25T06:28:32.863Z,97926.86
2023-07-25T06:31:01.283Z,97932.41
2023-07-25T06:33:30.304Z,97935.81
2023-07-25T06:35:58.875Z,97933.52
2023-07-25T06:38:29.562Z,97933.74
2023-07-25T06:41:04.404Z,97932.91
2023-07-25T06:43:33.494Z,97934.94
2023-07-25T06:46:04.880Z,97943.80
2023-07-25T06:51:31.181Z,97935.91
2023-07-25T06:54:02.066Z,97941.15
2023-07-25T06:56:33.376Z,97941.08
2023-07-25T06:59:01.792Z,97935.97
2023-07-25T07:01:30.644Z,97929.27
2023-07-25T07:04:01.110Z,97932.85
2023-07-25T07:06:30.598Z,97925.39
2023-07-25T07:09:00.769Z,97924.73
2023-07-25T07:11:31.808Z,97925.63
2023-07-25T07:14:00.854Z,97922.63
2023-07-25T07:16:29.357Z,97920.11
2023-07-25T07:19:00.680Z,97918.52
2023-07-25T07:21:29.526Z,97918.41
2023-07-25T07:23:59.181Z,97913.74
2023-07-25T07:26:27.725Z,97905.08
2023-07-25T07:29:01.132Z,97896.67
2023-07-25T07:31:30.057Z,97888.32
2023-07-25T07:34:14.690Z,97888.77
2023-07-25T07:36:44.400Z,97888.86
2023-07-25T07:39:12.957Z,97886.05
2023-07-25T07:41:41.146Z,97879.83
2023-07-25T07:44:09.450Z,97879.24
2023-07-25T07:46:37.893Z,97885.27
2023-07-25T07:49:07.019Z,97887.98
2023-07-25T07:51:35.697Z,97885.90
2023-07-25T07:54:04.021Z,97883.55
2023-07-25T07:56:32.515Z,97871.69
2023-07-25T07:59:02.716Z,97867.98
2023-07-25T08:01:31.300Z,97866.18
2023-07-25T08:04:00.278Z,97866.94
2023-07-25T08:06:29.603Z,97880.57
2023-07-25T08:08:57.921Z,97882.86
2023-07-25T08:11:26.075Z,97879.23
2023-07-25T08:13:54.372Z,97873.81
2023-07-25T08:16:23.532Z,97868.95
2023-07-25T08:18:52.112Z,97871.87
2023-07-25T08:21:20.208Z,97879.15
2023-07-25T08:23:48.563Z,97875.96
2023-07-25T08:26:41.549Z,97879.22
2023-07-25T08:29:09.926Z,97876.57
2023-07-25T08:31:38.209Z,97867.98
2023-07-25T08:34:06.602Z,97862.98
2023-07-25T08:36:34.958Z,97858.97
2023-07-25T08:39:03.051Z,97853.95
2023-07-25T08:41:36.926Z,97856.25
2023-07-25T08:44:06.239Z,97858.80
2023-07-25T08:46:36.466Z,97865.31
2023-07-25T08:49:04.807Z,97866.90
2023-07-25T08:52:04.461Z,97864.69
2023-07-25T08:54:38.287Z,97867.63
2023-07-25T08:57:07.640Z,97864.72
2023-07-25T08:59:37.346Z,97868.22
2023-07-25T09:02:07.479Z,97870.21
2023-07-25T09:04:36.275Z,97874.06
2023-07-25T09:07:04.988Z,97875.55
2023-07-25T09:09:33.187Z,97859.23
2023-07-25T09:12:01.640Z,97854.68
2023-07-25T09:14:29.954Z,97854.40
2023-07-25T09:16:58.315Z,97848.20
2023-07-25T09:19:26.913Z,97845.80
2023-07-25T09:21:55.940Z,97841.88
2023-07-25T09:24:24.321Z,97835.84
2023-07-25T09:26:53.280Z,97829.13
2023-07-25T09:29:28.195Z,97828.98
2023-07-25T09:31:56.397Z,97831.73
2023-07-25T09:34:26.596Z,97829.21
2023-07-25T09:36:54.811Z,97828.58
2023-07-25T09:39:23.091Z,97824.30
2023-07-25T09:41:52.252Z,97824.08
2023-07-25T09:44:21.559Z,97832.58
2023-07-25T09:46:55.270Z,97840.14
2023-07-25T09:49:26.442Z,97842.18
2023-07-25T09:52:04.605Z,97836.18
2023-07-25T09:54:32.884Z,97831.30
2023-07-25T09:57:01.218Z,97827.73
2023-07-25T09:59:30.855Z,97828.98
2023-07-25T10:01:59.501Z,97826.75
2023-07-25T10:04:28.762Z,97821.45
2023-07-25T10:07:00.822Z,97814.74
2023-07-25T10:09:31.753Z,97810.78
2023-07-25T10:12:00.229Z,97806.38
2023-07-25T10:14:28.497Z,97804.40
2023-07-25T10:17:00.228Z,97809.13
2023-07-25T10:19:28.816Z,97804.90
2023-07-25T10:21:57.132Z,97799.45
2023-07-25T10:24:25.991Z,97805.34
2023-07-25T10:26:59.334Z,97804.88
2023-07-25T10:29:43.598Z,97802.52
2023-07-25T10:32:17.212Z,97808.94
2023-07-25T10:34:53.857Z,97812.31
2023-07-25T10:37:29.602Z,97812.38
2023-07-25T10:40:09.977Z,97808.63
2023-07-25T10:43:04.394Z,97802.31
2023-07-25T10:45:35.498Z,97803.02
2023-07-25T10:48:33.119Z,97807.09
2023-07-25T10:51:06.337Z,97804.58
2023-07-25T10:53:35.882Z,97802.36
2023-07-25T10:56:07.773Z,97796.05
2023-07-25T10:58:40.180Z,97795.20
2023-07-25T11:01:08.751Z,97787.20
2023-07-25T11:03:38.939Z,97783.17
2023-07-25T11:06:10.332Z,97777.16
2023-07-25T11:08:43.529Z,97772.04
2023-07-25T11:11:14.320Z,97768.94
2023-07-25T11:13:43.496Z,97760.50
2023-07-25T11:16:15.415Z,97754.73
2023-07-25T11:18:52.440Z,97750.98
2023-07-25T11:21:21.629Z,97744.41
2023-07-25T11:24:07.768Z,97736.23
2023-07-25T11:26:38.698Z,97732.38
2023-07-25T11:29:14.760Z,97723.64
2023-07-25T11:31:50.679Z,97719.73
2023-07-25T11:34:21.884Z,97716.45
2023-07-25T11:36:53.104Z,97713.11
2023-07-25T11:39:23.435Z,97710.94
2023-07-25T11:41:52.343Z,97708.34
2023-07-25T11:45:12.486Z,97699.92
2023-07-25T11:47:48.521Z,97682.48
2023-07-25T11:50:29.486Z,97665.59
2023-07-25T11:53:01.797Z,97655.92
2023-07-25T11:55:31.253Z,97649.10
2023-07-25T11:58:03.884Z,97646.84
2023-07-25T12:00:43.932Z,97642.07
2023-07-25T12:03:20.470Z,97640.98
2023-07-25T12:06:08.145Z,97637.10
2023-07-25T12:08:41.265Z,97635.79
2023-07-25T12:11:18.633Z,97633.04
2023-07-25T12:13:47.934Z,97629.50
2023-07-25T12:16:35.926Z,97632.54
2023-07-25T12:19:17.968Z,97626.88
2023-07-25T12:21:47.303Z,97623.45
2023-07-25T12:24:17.525Z,97618.30
2023-07-25T12:26:57.823Z,97619.65
2023-07-25T12:29:29.281Z,97620.35
2023-07-25T12:31:58.145Z,97620.95
2023-07-25T12:34:26.636Z,97618.00
2023-07-25T12:36:55.055Z,97619.95
2023-07-25T12:39:31.951Z,97624.15
2023-07-25T12:42:00.384Z,97630.21
2023-07-25T12:44:28.643Z,97635.13
2023-07-25T12:46:56.869Z,97635.97
2023-07-25T12:49:25.286Z,97639.15
2023-07-25T12:51:53.904Z,97640.30
2023-07-25T12:54:22.598Z,97646.35
2023-07-25T12:57:06.906Z,97653.77
2023-07-25T12:59:38.114Z,97659.31
2023-07-25T13:02:07.482Z,97661.93
2023-07-25T13:04:38.561Z,97660.75
2023-07-25T13:07:07.026Z,97663.38
2023-07-25T13:09:37.676Z,97669.20
2023-07-25T13:12:08.837Z,97681.10
2023-07-25T13:14:40.431Z,97684.06
2023-07-25T13:17:08.731Z,97684.34
2023-07-25T13:19:37.000Z,97690.23
2023-07-25T13:22:05.627Z,97691.37
2023-07-25T13:24:36.655Z,97693.25
2023-07-25T13:27:05.251Z,97686.71
2023-07-25T13:29:33.738Z,97686.80
2023-07-25T13:32:01.990Z,97694.20
2023-07-25T13:34:30.284Z,97693.10
2023-07-25T13:36:58.572Z,97685.39
2023-07-25T13:39:28.861Z,97681.44
2023-07-25T13:41:57.133Z,97680.04
2023-07-25T13:44:25.585Z,97678.59
2023-07-25T13:46:53.820Z,97686.97
2023-07-25T13:49:22.215Z,97693.90
2023-07-25T13:51:50.696Z,97692.69
2023-07-25T13:54:20.573Z,97687.95
2023-07-25T13:56:49.609Z,97680.16
2023-07-25T13:59:17.991Z,97681.17
2023-07-25T14:01:46.579Z,97687.74
2023-07-25T14:04:17.313Z,97691.73
2023-07-25T14:06:48.314Z,97693.71
2023-07-25T14:09:21.145Z,97702.07
2023-07-25T14:11:50.188Z,97711.14
2023-07-25T14:14:29.487Z,97726.57
2023-07-25T14:17:02.465Z,97745.02
2023-07-25T14:19:31.625Z,97760.58
2023-07-25T14:22:01.818Z,97760.57
2023-07-25T14:24:31.147Z,97760.61
2023-07-25T14:26:59.696Z,97765.27
2023-07-25T14:29:30.666Z,97774.77
2023-07-25T14:31:59.720Z,97767.97
2023-07-25T14:34:28.353Z,97764.02
2023-07-25T14:36:56.647Z,97765.15
2023-07-25T14:39:25.026Z,97770.40
2023-07-25T14:41:54.387Z,97770.58
2023-07-25T14:44:26.946Z,97764.73
2023-07-25T14:46:55.471Z,97765.71
2023-07-25T14:49:23.793Z,97761.89
2023-07-25T14:51:53.674Z,97762.49
2023-07-25T14:54:21.999Z,97760.12
2023-07-25T14:56:50.259Z,97756.75
2023-07-25T14:59:18.603Z,97745.54
2023-07-25T15:01:48.165Z,97739.80
2023-07-25T15:04:16.608Z,97744.48
2023-07-25T15:06:48.667Z,97742.47
2023-07-25T15:09:17.045Z,97731.65
2023-07-25T15:11:51.642Z,97720.11
2023-07-25T15:14:23.057Z,97716.27
2023-07-25T15:16:56.813Z,97721.62
2023-07-25T15:19:27.428Z,97719.29
2023-07-25T15:21:59.147Z,97712.80
2023-07-25T15:24:32.628Z,97715.28
2023-07-25T15:27:05.093Z,97714.11
2023-07-25T15:29:36.355Z,97708.21
2023-07-25T15:32:05.092Z,97705.71
2023-07-25T15:34:33.441Z,97714.48
2023-07-25T15:37:01.781Z,97728.27
2023-07-25T15:39:29.929Z,97724.52
2023-07-25T15:41:59.808Z,97718.98
2023-07-25T15:44:30.328Z,97726.59
2023-07-25T15:47:08.436Z,97728.21
2023-07-25T15:49:38.980Z,97730.52
2023-07-25T15:52:10.392Z,97738.30
2023-07-25T15:54:40.927Z,97736.83
2023-07-25T15:57:11.861Z,97731.81
2023-07-25T15:59:42.455Z,97730.15
2023-07-25T16:02:13.897Z,97730.65
2023-07-25T16:04:45.328Z,97732.02
2023-07-25T16:07:14.245Z,97734.34
2023-07-25T16:09:50.143Z,97731.79
2023-07-25T16:12:23.846Z,97731.64
2023-07-25T16:15:05.165Z,97733.59
2023-07-25T16:17:36.098Z,97736.98
2023-07-25T16:20:28.583Z,97738.55
2023-07-25T16:22:58.759Z,97746.56
2023-07-25T16:25:31.212Z,97753.37
2023-07-25T16:28:02.030Z,97756.26
2023-07-25T16:30:31.638Z,97748.84
2023-07-25T16:32:59.881Z,97755.02
2023-07-25T16:35:30.133Z,97758.29
2023-07-25T16:38:03.344Z,97763.11
2023-07-25T16:40:36.913Z,97766.23
2023-07-25T16:43:16.915Z,97768.44
2023-07-25T16:45:50.818Z,97768.90
2023-07-25T16:48:21.293Z,97771.58
2023-07-25T16:50:49.890Z,97779.20
2023-07-25T16:53:20.559Z,97780.83
2023-07-25T16:55:48.813Z,97782.10
2023-07-25T16:58:17.124Z,97788.13
2023-07-25T17:00:52.518Z,97790.23
2023-07-25T17:03:21.190Z,97782.88
2023-07-25T17:05:49.646Z,97786.98
2023-07-25T17:08:20.606Z,97789.37
2023-07-25T17:10:49.146Z,97789.23
2023-07-25T17:13:20.967Z,97791.20
2023-07-25T17:15:49.656Z,97793.40
2023-07-25T17:18:18.037Z,97793.06
2023-07-25T17:20:46.702Z,97794.10
2023-07-25T17:23:23.028Z,97791.60
2023-07-25T17:25:57.664Z,97796.67
2023-07-25T17:28:26.675Z,97799.40
2023-07-25T17:30:58.958Z,97803.60
2023-07-25T17:33:27.703Z,97799.12
2023-07-25T17:35:56.125Z,97803.55
2023-07-25T17:38:34.008Z,97806.95
2023-07-25T17:41:25.550Z,97802.20
2023-07-25T17:48:10.450Z,97795.70
2023-07-25T17:51:51.226Z,97801.50
2023-07-25T17:54:39.497Z,97806.98
2023-07-25T17:57:09.618Z,97810.89
2023-07-25T17:59:38.056Z,97814.91
2023-07-25T18:02:08.394Z,97812.38
2023-07-25T18:04:36.864Z,97806.55
2023-07-25T18:07:05.443Z,97812.19
2023-07-25T18:09:33.787Z,97818.64
2023-07-25T18:12:02.487Z,97821.09
2023-07-25T18:14:33.896Z,97820.44
2023-07-25T18:17:02.234Z,97824.05
2023-07-25T18:19:30.673Z,97827.91
2023-07-25T18:22:00.784Z,97833.89
2023-07-25T18:24:29.218Z,97837.58
2023-07-25T18:26:57.745Z,97839.73
2023-07-25T18:29:42.587Z,97838.41
2023-07-25T18:32:11.143Z,97840.63
2023-07-25T18:34:40.926Z,97846.13
2023-07-25T18:37:14.396Z,97847.49
2023-07-25T18:40:08.375Z,97850.96
2023-07-25T18:42:38.737Z,97857.32
2023-07-25T18:47:53.532Z,97867.02
2023-07-25T18:50:25.280Z,97865.86
2023-07-25T18:52:53.627Z,97870.67
2023-07-25T18:55:26.097Z,97874.06
2023-07-25T18:57:56.645Z,97878.59
2023-07-25T19:00:25.686Z,97880.09
2023-07-25T19:02:55.796Z,97878.25
2023-07-25T19:05:24.288Z,97882.35
2023-07-25T19:07:52.607Z,97885.98
2023-07-25T19:10:20.930Z,97889.29
2023-07-25T19:12:49.235Z,97893.23
2023-07-25T19:15:18.636Z,97893.80
2023-07-25T19:17:47.648Z,97893.52
2023-07-25T19:20:15.884Z,97891.63
2023-07-25T19:22:44.262Z,97889.86
2023-07-25T19:25:12.505Z,97890.35
2023-07-25T19:27:41.620Z,97888.02
2023-07-25T19:30:10.544Z,97889.38
2023-07-25T19:32:38.917Z,97899.88
2023-07-25T19:35:10.311Z,97904.71
2023-07-25T19:37:42.906Z,97903.91
2023-07-25T19:40:11.516Z,97893.86
2023-07-25T19:42:40.562Z,97886.94
2023-07-25T19:45:09.452Z,97876.80
2023-07-25T19:47:37.849Z,97875.01
2023-07-25T19:50:06.997Z,97879.33
2023-07-25T19:52:35.379Z,97886.26
2023-07-25T19:55:03.707Z,97884.38
2023-07-25T19:57:31.965Z,97872.88
2023-07-25T20:00:00.313Z,97865.89
2023-07-25T20:02:28.862Z,97858.18
2023-07-25T20:04:57.165Z,97856.26
2023-07-25T20:07:25.554Z,97851.69
2023-07-25T20:09:54.026Z,97844.20
2023-07-25T20:12:22.266Z,97836.79
2023-07-25T20:14:51.930Z,97833.30
2023-07-25T20:17:20.225Z,97832.55
2023-07-25T20:19:48.899Z,97834.33
2023-07-25T20:22:17.200Z,97846.37
2023-07-25T20:24:45.520Z,97853.91
2023-07-25T20:27:16.483Z,97861.02
2023-07-25T20:29:44.802Z,97861.69
2023-07-25T20:32:13.167Z,97868.16
2023-07-25T20:34:41.781Z,97876.06
2023-07-25T20:37:10.217Z,97877.48
2023-07-25T20:39:38.569Z,97875.70
2023-07-25T20:42:07.198Z,97876.89
2023-07-25T20:44:35.894Z,97885.48
2023-07-25T20:47:04.451Z,97880.58
2023-07-25T20:49:32.701Z,97873.36
2023-07-25T20:52:00.995Z,97873.28
2023-07-25T20:54:29.292Z,97873.05
2023-07-25T20:56:57.490Z,97872.93
2023-07-25T20:59:25.761Z,97873.35
2023-07-25T21:01:54.152Z,97874.64
2023-07-25T21:04:22.479Z,97875.77
2023-07-25T21:06:50.804Z,97879.08
2023-07-25T21:09:19.334Z,97877.96
2023-07-25T21:11:47.716Z,97871.42
2023-07-25T21:14:16.076Z,97866.63
2023-07-25T21:16:44.532Z,97859.00
2023-07-25T21:19:13.100Z,97858.86
2023-07-25T21:21:41.465Z,97863.13
2023-07-25T21:24:10.018Z,97858.52
2023-07-25T21:26:38.404Z,97852.02
2023-07-25T21:29:06.687Z,97851.44
2023-07-25T21:31:35.042Z,97860.20
2023-07-25T21:34:04.361Z,97865.37
2023-07-25T21:36:33.063Z,97867.88
2023-07-25T21:39:02.128Z,97862.52
2023-07-25T21:41:30.342Z,97861.98
2023-07-25T21:43:58.710Z,97865.80
2023-07-25T21:46:28.429Z,97869.31
2023-07-25T21:48:57.699Z,97873.51
2023-07-25T21:51:26.026Z,97872.70
2023-07-25T21:53:54.245Z,97869.15
2023-07-25T21:56:22.556Z,97867.17
2023-07-25T21:58:50.829Z,97866.48
2023-07-25T22:01:19.168Z,97869.48
2023-07-25T22:08:22.051Z,97876.09
2023-07-25T22:10:51.228Z,97878.95
2023-07-25T22:13:20.272Z,97879.14
2023-07-25T22:15:48.852Z,97883.46
2023-07-25T22:18:20.477Z,97883.27
2023-07-25T22:21:15.185Z,97890.95
2023-07-25T22:23:43.416Z,97899.75
2023-07-25T22:26:11.870Z,97907.83
2023-07-25T22:28:40.135Z,97907.54
2023-07-25T22:31:08.387Z,97909.05
2023-07-25T22:33:36.709Z,97904.23
2023-07-25T22:36:05.085Z,97904.53
2023-07-25T22:38:33.284Z,97914.05
2023-07-25T22:41:01.660Z,97915.23
2023-07-25T22:43:29.863Z,97913.45
2023-07-25T22:45:58.244Z,97911.77
2023-07-25T22:48:27.205Z,97909.23
2023-07-25T22:51:21.307Z,97914.80
2023-07-25T22:53:49.691Z,97922.32
2023-07-25T22:56:18.059Z,97925.77
2023-07-25T22:58:46.416Z,97933.73
2023-07-25T23:01:14.784Z,97935.52
2023-07-25T23:03:43.203Z,97934.95
2023-07-25T23:06:11.497Z,97938.27
2023-07-25T23:08:39.877Z,97936.59
2023-07-25T23:11:08.189Z,97938.07
2023-07-25T23:13:36.522Z,97939.71
2023-07-25T23:16:05.431Z,97938.93
2023-07-25T23:18:33.669Z,97934.88
2023-07-25T23:21:02.436Z,97935.63
2023-07-25T23:23:30.756Z,97934.88
2023-07-25T23:25:59.062Z,97937.98
2023-07-25T23:28:27.318Z,97932.53
2023-07-25T23:30:55.689Z,97925.23
2023-07-25T23:33:24.211Z,97925.08
2023-07-25T23:35:52.503Z,97927.48
2023-07-25T23:38:20.929Z,97931.72
2023-07-25T23:40:49.224Z,97931.90
2023-07-25T23:43:17.403Z,97928.52
2023-07-25T23:45:45.652Z,97933.89
2023-07-25T23:48:13.985Z,97943.52
2023-07-25T23:50:42.296Z,97947.37
2023-07-25T23:53:10.629Z,97951.27
2023-07-25T23:55:38.848Z,97948.71
2023-07-25T23:58:07.133Z,97947.64
